Flight Track Log - Related Links

Times and Time Zones

All times are in EDT time to prevent confusion due to time zone crossing. See the AWI3606 flight status page for this flight to view local times or setup timezone preferences in your user account.

Time Position Orientation Groundspeed Altitude Reporting Facility
EDT Latitude Longitude Course Direction KTS MPH feet Rate Location/Type
Fri 12:03:33 AM 38.8833 -77.0667 319° Northwest 162 186 2,000  Level Potomac TRACON
Fri 12:06:00 AM 39.0006 -77.1969 319° Northwest 236 272 8,200 2,452 Climbing Washington Center
Fri 12:07:01 AM 39.0581 -77.2622 319° Northwest 259 298 10,500 2,132 Climbing Washington Center
Fri 12:08:01 AM 39.1197 -77.3333 318° Northwest 286 329 12,500 1,672 Climbing Washington Center
Fri 12:09:03 AM 39.1981 -77.3942 329° Northwest 319 367 13,900 1,333 Climbing Washington Center
Fri 12:11:28 AM 39.4461 -77.4256 354° North 373 429 17,100 1,340 Climbing New York Center
Fri 12:12:29 AM 39.5578 -77.4414 354° North 383 441 18,500 1,240 Climbing New York Center
Fri 12:13:29 AM 39.6719 -77.4522 356° North 397 457 19,600 1,068 Climbing New York Center
Fri 12:14:27 AM 39.7867 -77.4522 360° North 403 464 20,600 1,008 Climbing New York Center
Fri 12:15:28 AM 39.8942 -77.3947 22° Northeast 403 464 21,600 942 Climbing New York Center
Fri 12:16:28 AM 39.9814 -77.2894 43° Northeast 396 456 22,500 857 Climbing New York Center
Fri 12:17:27 AM 40.0706 -77.1836 42° Northeast 414 476 23,300 900 Climbing New York Center
Fri 12:18:28 AM 40.1708 -77.0653 42° Northeast 427 491 24,300 942 Climbing New York Center
Fri 12:19:28 AM 40.2600 -76.9564 43° Northeast 427 491 25,200 950 Climbing New York Center
Fri 12:20:28 AM 40.3508 -76.8528 41° Northeast 427 491 26,200 900 Climbing New York Center
Fri 12:21:28 AM 40.4397 -76.7433 43° Northeast 427 491 27,000 650 Climbing New York Center
Fri 12:22:28 AM 40.5283 -76.6364 43° Northeast 427 491 27,500 545 Climbing New York Center
Fri 12:23:29 AM 40.6217 -76.5211 43° Northeast 433 498 28,100 545 Climbing New York Center
Fri 12:24:29 AM 40.7144 -76.4083 43° Northeast 447 514 28,600 454 Climbing New York Center
Fri 12:25:28 AM 40.8097 -76.2928 43° Northeast 452 520 29,000 200 Climbing New York Center
Fri 12:26:29 AM 40.9028 -76.1742 44° Northeast 457 526 29,000  Level New York Center
Fri 12:27:27 AM 41.0042 -76.0503 43° Northeast 469 540 29,000  Level New York Center
Fri 12:28:29 AM 41.1056 -75.9231 43° Northeast 486 559 29,000  Level New York Center
Fri 12:29:29 AM 41.2089 -75.7986 42° Northeast 492 566 29,000  Level New York Center
Fri 12:30:27 AM 41.3317 -75.7000 31° Northeast 504 580 29,000  Level New York Center
Fri 12:31:28 AM 41.4483 -75.5978 33° Northeast 504 580 29,000  Level New York Center
Fri 12:33:39 AM 41.7122 -75.3686 33° Northeast 512 589 29,000  Level Boston Center
Fri 12:34:39 AM 41.8317 -75.2656 33° Northeast 512 589 29,000  Level Boston Center
Fri 12:35:39 AM 41.9489 -75.1589 34° Northeast 512 589 29,000  Level Boston Center
Fri 12:36:39 AM 42.0550 -75.0714 31° Northeast 505 581 29,000  Level Boston Center
Fri 12:37:39 AM 42.1881 -75.0042 21° North 500 575 29,000  Level Boston Center
Fri 12:38:39 AM 42.3031 -74.8964 35° Northeast 500 575 29,000  Level Boston Center
Fri 12:39:39 AM 42.3708 -74.7333 61° Northeast 481 554 29,000  Level Boston Center
Fri 12:40:39 AM 42.4431 -74.5672 59° Northeast 492 566 29,000  Level Boston Center
Fri 12:41:39 AM 42.5167 -74.4061 58° Northeast 499 574 29,000  Level Boston Center
Fri 12:42:39 AM 42.5903 -74.2394 59° Northeast 505 581 29,000  Level Boston Center
Fri 12:43:39 AM 42.6617 -74.0747 59° Northeast 505 581 29,000 -50 Level Boston Center
Fri 12:44:39 AM 42.7389 -73.9100 57° Northeast 505 581 28,900  Descending Boston Center
Fri 12:45:39 AM 42.8097 -73.7419 60° Northeast 505 581 29,000 50 Climbing Boston Center
Fri 12:46:39 AM 42.8825 -73.5764 59° Northeast 505 581 29,000  Level Boston Center
Fri 12:47:39 AM 42.9547 -73.4103 59° Northeast 505 581 29,000  Level Boston Center
Fri 12:48:39 AM 43.0353 -73.2439 56° Northeast 510 587 29,000  Level Boston Center
Fri 12:49:39 AM 43.1072 -73.0742 60° Northeast 510 587 29,000  Level Boston Center
Fri 12:50:39 AM 43.1789 -72.9042 60° Northeast 510 587 29,000 -50 Level Boston Center
Fri 12:51:39 AM 43.2525 -72.7367 59° Northeast 510 587 28,900 -300 Descending Boston Center
Fri 12:52:39 AM 43.3256 -72.5628 60° Northeast 510 587 28,400 -500 Descending Boston Center
Fri 12:53:39 AM 43.3967 -72.3917 60° Northeast 510 587 27,900 -500 Descending Boston Center
Fri 12:54:39 AM 43.4714 -72.2197 59° Northeast 510 587 27,400 -650 Descending Boston Center
Fri 12:55:39 AM 43.5417 -72.0447 61° Northeast 510 587 26,600 -900 Descending Boston Center
Fri 12:56:39 AM 43.6161 -71.8722 59° Northeast 510 587 25,600 -909 Descending Boston Center
Fri 12:57:51 AM 43.6839 -71.7022 61° Northeast 505 581 24,600 -1,000 Descending Boston Center
Fri 12:58:51 AM 43.7719 -71.4797 61° Northeast 505 581 23,400 -1,100 Descending Boston Center
Fri 12:59:51 AM 43.8392 -71.3147 60° Northeast 505 581 22,400 -1,150 Descending Boston Center
Fri 01:00:51 AM 43.9061 -71.1492 61° Northeast 505 581 21,100 -1,350 Descending Boston Center
Fri 01:01:51 AM 43.9731 -70.9861 60° Northeast 499 574 19,700 -1,500 Descending Boston Center
Fri 01:02:51 AM 44.0314 -70.8433 60° Northeast 481 554 18,100 -1,600 Descending Boston Center
Fri 01:03:51 AM 44.0997 -70.6681 61° Northeast 467 537 16,500 -1,550 Descending Boston Center
Fri 01:04:51 AM 44.1558 -70.5303 60° Northeast 467 537 15,000 -1,350 Descending Boston Center
Fri 01:05:51 AM 44.2219 -70.3689 60° Northeast 446 513 13,800 -1,100 Descending Boston Center
Fri 01:06:51 AM 44.2753 -70.2219 63° Northeast 434 499 12,800 -950 Descending Boston Center
Fri 01:07:51 AM 44.3292 -70.0922 60° Northeast 428 493 11,900 -800 Descending Boston Center
Fri 01:08:51 AM 44.3903 -69.9358 61° Northeast 423 487 11,200 -450 Descending Boston Center
Fri 01:09:51 AM 44.4414 -69.7969 63° Northeast 416 479 11,000 -100 Descending Boston Center
Fri 01:10:51 AM 44.4906 -69.6667 62° Northeast 398 458 11,000 -50 Level Boston Center
Fri 01:11:51 AM 44.5481 -69.5503 55° Northeast 376 433 10,900 -600 Descending Boston Center
Fri 01:12:51 AM 44.6208 -69.4650 40° Northeast 347 399 9,800 -1,450 Descending Boston Center
Fri 01:13:51 AM 44.6875 -69.3800 42° Northeast 329 379 8,000 -1,800 Descending Boston Center
Fri 01:14:51 AM 44.7561 -69.2944 42° Northeast 329 379 6,200 -1,650 Descending Boston Center
Fri 01:15:51 AM 44.8206 -69.2178 40° Northeast 324 373 4,700 -1,450 Descending Boston Center
Fri 01:16:51 AM 44.8831 -69.1381 42° Northeast 311 358 3,300 -1,050 Descending Boston Center
Fri 01:17:51 AM 44.9244 -69.0597 53° Northeast 280 322 2,600 -450 Descending Boston Center
Fri 01:18:51 AM 44.9158 -68.9808 99° East 214 246 2,400 -300 Descending Boston Center
Fri 01:19:51 AM 44.8811 -68.9361 138° Southeast 160 184 2,000 -600 Descending Boston Center
Fri 01:20:51 AM 44.8531 -68.8997 137° Southeast 148 170 1,200 -750 Descending Boston Center
Fri 01:21:51 AM 44.8267 -68.8603 133° Southeast 142 163 500 -500 Descending Boston Center
Fri 01:22:51 AM 44.8028 -68.8236 133° Southeast 137 158 200 5,250 Descending Boston Center
Fri 01:23:51 AM 44.7767 -68.7903 138° Southeast 137 158 11,000 10,800 Climbing Boston Center

Login

Don't have an account? Register now (free) for customized features, flight alerts, and more!